Hauptseite
METAR-TAF:

METAR-TAF

Flughäfen :

Flughafen Antonio B. Won Pat

Hagåtña, Guam, Vereinigte Staaten

Breite: 13-29N, Länge: 144-48E, Höhe: 91 m

Beobachtung

Neuester Wetterbericht von vor 24 Minuten, um 01:19 UTC
Wind 10 kt aus Ost/Südost, Böen bis zu 15 kt
Temperatur 30°C
Luftfeuchtigkeit 89%
Luftdruck 1008 hPa
Sichtweite: 16.1 km
Durchbrochene Bewölkung in der Höhe von 1200 ft

METAR: PGUM 210119Z 11010G15KT 10SM BKN012 30/28 A2977 RMK AO2 RAE0055 P0000 T03000283

Zeit: 11:43 (01:43 UTC)

Prognose

Neuester Wetterbericht von vor 2 Stunden und 23 Minuten, um 23:20 UTC
Gültige Prognose vom 21 um 00 UTC bis 22 um 06 UTC
Wind 11 kt aus Ost
Sichtweite: 10 km
Leicht bewölkt in der Höhe von 1800 ft
Aufgelockert bewölkt in der Höhe von 5000 ft
Durchbrochene Bewölkung in der Höhe von 16000 ft
Schauer in der Nähe

TAF: PGUM 202320Z 2100/2206 08011KT P6SM VCSH FEW018 SCT050 BKN160

Wetterbeobachtungen und Prognosen von mehr als 4000 Flughäfen (METAR und TAF Bericht).

Die verfügbaren Stationen werden durch gelbe und rote Markierungen auf der Karte dargestellt.

Führen Sie die Maus auf sie, um den Namen der Station zu sehen.

Darauf klicken, um die Beobachtung von Wetterbeobachtungen und Prognosen zu sehen.

Um die Karte zu ändern : klicken Sie auf den grünen Tasten mit einem schwarzen Kreuz Zum Vergrößern, auf den grünen Button mit einem Gedankenstrich zu verkleinern, oder auf die grünen Pfeile für benachbarte Karten.


METAR-TAF: